createdAt,value
2022-12-11T00:00:30.724Z,22.17
2022-12-11T00:03:18.679Z,20.70
2022-12-11T00:06:08.188Z,22.97
2022-12-11T00:08:55.581Z,21.37
2022-12-11T00:11:42.724Z,21.97
2022-12-11T00:14:29.908Z,23.30
2022-12-11T00:17:16.966Z,21.70
2022-12-11T00:20:05.131Z,21.47
2022-12-11T00:22:52.124Z,21.13
2022-12-11T00:25:44.308Z,21.50
2022-12-11T00:28:31.317Z,22.77
2022-12-11T00:31:20.223Z,21.20
2022-12-11T00:34:07.473Z,22.17
2022-12-11T00:36:54.441Z,21.00
2022-12-11T00:39:41.385Z,22.93
2022-12-11T00:42:28.359Z,21.87
2022-12-11T00:45:15.736Z,21.73
2022-12-11T00:48:02.755Z,22.33
2022-12-11T00:50:49.733Z,22.20
2022-12-11T00:53:37.353Z,22.03
2022-12-11T00:56:25.385Z,21.10
2022-12-11T00:59:12.372Z,20.77
2022-12-11T01:01:59.362Z,23.40
2022-12-11T01:04:46.333Z,21.57
2022-12-11T01:07:33.328Z,20.50
2022-12-11T01:10:26.292Z,23.17
2022-12-11T01:13:13.400Z,22.43
2022-12-11T01:16:00.384Z,20.77
2022-12-11T01:18:47.405Z,22.93
2022-12-11T01:21:34.400Z,23.20
2022-12-11T01:24:21.532Z,23.10
2022-12-11T01:27:08.623Z,22.00
2022-12-11T01:29:55.716Z,23.67
2022-12-11T01:32:42.685Z,23.37
2022-12-11T01:35:29.807Z,22.53
2022-12-11T01:38:16.728Z,23.70
2022-12-11T01:41:03.940Z,22.87
2022-12-11T01:43:57.964Z,22.07
2022-12-11T01:46:44.985Z,23.43
2022-12-11T01:49:32.000Z,23.27
2022-12-11T01:52:22.323Z,22.97
2022-12-11T01:55:10.321Z,24.93
2022-12-11T01:57:57.797Z,23.70
2022-12-11T02:00:44.751Z,25.27
2022-12-11T02:03:32.268Z,22.90
2022-12-11T02:06:41.993Z,24.57
2022-12-11T02:09:35.368Z,22.57
2022-12-11T02:12:40.808Z,24.07
2022-12-11T02:15:38.028Z,24.10
2022-12-11T02:18:45.917Z,22.97
2022-12-11T02:21:41.249Z,24.67
2022-12-11T02:24:58.523Z,21.30
2022-12-11T02:27:50.513Z,22.20
2022-12-11T02:30:40.744Z,23.57
2022-12-11T02:33:44.006Z,26.30
2022-12-11T02:36:36.107Z,24.53
2022-12-11T02:39:27.105Z,22.67
2022-12-11T02:42:16.559Z,24.87
2022-12-11T02:45:05.729Z,23.17
2022-12-11T02:47:53.069Z,23.80
2022-12-11T02:50:45.421Z,25.03
2022-12-11T02:53:35.288Z,23.53
2022-12-11T02:57:02.026Z,24.67
2022-12-11T02:59:49.670Z,24.47
2022-12-11T03:02:38.342Z,24.27
2022-12-11T03:05:27.296Z,23.77
2022-12-11T03:08:17.593Z,23.03
2022-12-11T03:11:04.841Z,22.03
2022-12-11T03:13:53.897Z,24.20
2022-12-11T03:16:59.892Z,25.03
2022-12-11T03:20:00.733Z,25.37
2022-12-11T03:22:57.752Z,24.13
2022-12-11T03:26:03.485Z,22.60
2022-12-11T03:29:08.005Z,24.77
2022-12-11T03:32:20.055Z,25.90
2022-12-11T03:35:14.869Z,25.73
2022-12-11T03:38:08.379Z,25.03
2022-12-11T03:40:59.845Z,25.40
2022-12-11T03:43:48.438Z,25.47
2022-12-11T03:46:40.113Z,25.90
2022-12-11T03:49:31.890Z,25.70
2022-12-11T03:52:20.156Z,26.23
2022-12-11T03:55:09.396Z,26.33
2022-12-11T03:57:56.769Z,26.10
2022-12-11T04:00:44.070Z,24.57
2022-12-11T04:03:31.175Z,26.33
2022-12-11T04:06:18.292Z,24.40
2022-12-11T04:09:05.597Z,24.30
2022-12-11T04:11:52.552Z,25.97
2022-12-11T04:14:57.989Z,26.87
2022-12-11T04:18:06.830Z,24.77
2022-12-11T04:21:13.416Z,24.97
2022-12-11T04:24:15.673Z,24.67
2022-12-11T04:27:02.682Z,25.47
2022-12-11T04:29:49.783Z,23.90
2022-12-11T04:32:36.887Z,26.60
2022-12-11T04:35:24.072Z,25.97
2022-12-11T04:38:11.225Z,25.17
2022-12-11T04:41:03.302Z,25.70
2022-12-11T04:43:50.300Z,24.17
2022-12-11T04:46:37.276Z,25.13
2022-12-11T04:49:24.288Z,24.20
2022-12-11T04:52:11.269Z,25.77
2022-12-11T04:54:58.390Z,24.50
2022-12-11T04:57:45.413Z,24.80
2022-12-11T05:00:33.262Z,24.23
2022-12-11T05:03:21.329Z,24.33
2022-12-11T05:06:09.922Z,26.47
2022-12-11T05:08:57.040Z,23.73
2022-12-11T05:11:44.110Z,25.10
2022-12-11T05:14:32.529Z,24.27
2022-12-11T05:17:21.208Z,25.93
2022-12-11T05:20:08.659Z,24.60
2022-12-11T05:22:55.704Z,23.50
2022-12-11T05:25:42.698Z,25.63
2022-12-11T05:28:32.981Z,26.40
2022-12-11T05:31:25.844Z,23.27
2022-12-11T05:34:13.018Z,25.93
2022-12-11T05:37:00.023Z,24.23
2022-12-11T05:39:47.030Z,25.50
2022-12-11T05:42:34.921Z,25.90
2022-12-11T05:45:22.134Z,24.53
2022-12-11T05:48:09.126Z,24.30
2022-12-11T05:50:58.023Z,24.47
2022-12-11T05:53:46.486Z,24.97
2022-12-11T05:56:34.922Z,24.30
2022-12-11T05:59:21.975Z,25.57
2022-12-11T06:02:09.056Z,25.67
2022-12-11T06:04:56.274Z,24.17
2022-12-11T06:07:43.328Z,24.17
2022-12-11T06:10:30.527Z,25.80
2022-12-11T06:13:17.688Z,25.63
2022-12-11T06:16:06.708Z,24.87
2022-12-11T06:18:58.044Z,25.10
2022-12-11T06:21:45.940Z,26.00
2022-12-11T06:24:33.025Z,25.13
2022-12-11T06:27:20.546Z,25.93
2022-12-11T06:30:08.390Z,25.57
2022-12-11T06:32:55.472Z,26.30
2022-12-11T06:35:42.696Z,24.87
2022-12-11T06:38:29.783Z,27.17
2022-12-11T06:41:17.525Z,25.83
2022-12-11T06:44:04.695Z,25.47
2022-12-11T06:46:51.740Z,26.13
2022-12-11T06:49:38.769Z,25.53
2022-12-11T06:52:27.754Z,26.70
2022-12-11T06:55:14.834Z,26.43
2022-12-11T06:58:02.257Z,25.90
2022-12-11T07:00:49.346Z,27.53
2022-12-11T07:03:36.818Z,26.93
2022-12-11T07:06:25.642Z,27.00
2022-12-11T07:09:13.301Z,25.40
2022-12-11T07:12:00.422Z,25.40
2022-12-11T07:14:47.472Z,25.27
2022-12-11T07:17:34.563Z,25.17
2022-12-11T07:20:21.708Z,26.67
2022-12-11T07:23:09.208Z,27.83
2022-12-11T07:25:57.033Z,26.60
2022-12-11T07:28:44.340Z,26.13
2022-12-11T07:31:31.462Z,26.00
2022-12-11T07:34:18.836Z,24.53
2022-12-11T07:37:06.150Z,25.57
2022-12-11T07:39:53.278Z,25.73
2022-12-11T07:42:46.000Z,28.23
2022-12-11T07:45:33.370Z,25.43
2022-12-11T07:48:20.533Z,27.20
2022-12-11T07:51:17.630Z,28.20
2022-12-11T07:54:08.314Z,26.00
2022-12-11T07:56:55.339Z,23.90
2022-12-11T07:59:42.395Z,27.73
2022-12-11T08:02:35.445Z,26.53
2022-12-11T08:05:24.732Z,25.13
2022-12-11T08:08:11.878Z,27.23
2022-12-11T08:11:03.846Z,26.13
2022-12-11T08:13:50.931Z,24.70
2022-12-11T08:16:40.316Z,26.37
2022-12-11T08:19:28.148Z,26.37
2022-12-11T08:22:15.231Z,24.87
2022-12-11T08:25:02.374Z,26.83
2022-12-11T08:27:49.729Z,25.33
2022-12-11T08:30:40.145Z,28.43
2022-12-11T08:33:27.379Z,25.43
2022-12-11T08:36:17.813Z,27.67
2022-12-11T08:39:05.000Z,27.53
2022-12-11T08:41:51.995Z,26.20
2022-12-11T08:44:39.176Z,27.33
2022-12-11T08:47:26.501Z,25.97
2022-12-11T08:50:13.594Z,25.60
2022-12-11T08:53:00.610Z,25.87
2022-12-11T08:55:47.929Z,27.57
2022-12-11T08:58:35.878Z,26.23
2022-12-11T09:01:26.018Z,26.33
2022-12-11T09:04:13.139Z,25.60
2022-12-11T09:07:00.195Z,27.63
2022-12-11T09:09:47.471Z,27.20
2022-12-11T09:12:35.548Z,27.93
2022-12-11T09:15:22.824Z,28.17
2022-12-11T09:18:10.638Z,26.80
2022-12-11T09:21:02.716Z,28.27
2022-12-11T09:23:53.969Z,25.33
2022-12-11T09:26:41.425Z,25.00
2022-12-11T09:29:28.507Z,25.37
2022-12-11T09:32:15.567Z,28.43
2022-12-11T09:35:02.820Z,27.00
2022-12-11T09:37:49.872Z,25.83
2022-12-11T09:40:43.386Z,25.03
2022-12-11T09:44:11.517Z,26.17
2022-12-11T09:46:59.160Z,25.73
2022-12-11T09:49:49.874Z,26.13
2022-12-11T09:52:55.747Z,25.50
2022-12-11T09:56:16.568Z,26.30
2022-12-11T09:59:23.622Z,26.30
2022-12-11T10:02:32.187Z,26.90
2022-12-11T10:05:38.295Z,26.00
2022-12-11T10:08:49.709Z,26.03
2022-12-11T10:11:57.189Z,24.77
2022-12-11T10:15:02.988Z,26.27
2022-12-11T10:17:53.924Z,25.30
2022-12-11T10:20:42.883Z,24.63
2022-12-11T10:23:40.667Z,24.43
2022-12-11T10:26:29.933Z,24.23
2022-12-11T10:29:19.302Z,24.27
2022-12-11T10:32:17.753Z,25.23
2022-12-11T10:35:06.538Z,25.73
2022-12-11T10:38:01.852Z,25.03
2022-12-11T10:41:13.837Z,25.33
2022-12-11T10:44:02.240Z,24.53
2022-12-11T10:47:21.180Z,25.00
2022-12-11T10:50:22.230Z,24.03
2022-12-11T10:53:21.295Z,24.00
2022-12-11T10:56:08.316Z,24.40
2022-12-11T10:58:56.985Z,24.00
2022-12-11T11:01:47.047Z,25.57
2022-12-11T11:04:38.858Z,24.93
2022-12-11T11:07:30.504Z,25.50
2022-12-11T11:10:18.296Z,25.57
2022-12-11T11:13:05.392Z,24.93
2022-12-11T11:16:02.175Z,25.20
2022-12-11T11:18:53.728Z,25.20
2022-12-11T11:21:50.794Z,26.63
2022-12-11T11:24:44.856Z,26.67
2022-12-11T11:27:37.162Z,25.20
2022-12-11T11:30:41.788Z,24.87
2022-12-11T11:33:30.146Z,26.57
2022-12-11T11:36:26.911Z,24.37
2022-12-11T11:39:46.438Z,27.30
2022-12-11T11:43:02.346Z,25.73
2022-12-11T11:45:58.911Z,25.50
2022-12-11T11:49:17.574Z,26.30
2022-12-11T11:52:36.882Z,25.23
2022-12-11T11:56:22.263Z,24.43
2022-12-11T11:59:46.540Z,26.10
2022-12-11T12:02:49.328Z,25.10
2022-12-11T12:05:51.758Z,25.40
2022-12-11T12:08:38.954Z,26.13
2022-12-11T12:11:32.322Z,26.40
2022-12-11T12:18:07.927Z,26.37
2022-12-11T12:21:13.302Z,26.23
2022-12-11T12:24:18.213Z,26.53
2022-12-11T12:27:50.870Z,24.70
2022-12-11T12:30:57.566Z,27.17
2022-12-11T12:34:06.111Z,25.37
2022-12-11T12:37:30.831Z,25.60
2022-12-11T12:40:36.598Z,26.13
2022-12-11T12:43:32.912Z,26.13
2022-12-11T12:46:31.999Z,25.33
2022-12-11T12:49:33.327Z,27.57
2022-12-11T12:52:36.506Z,26.50
2022-12-11T12:55:27.306Z,24.83
2022-12-11T12:58:30.595Z,25.50
2022-12-11T13:01:38.885Z,24.97
2022-12-11T13:04:55.582Z,24.93
2022-12-11T13:07:54.265Z,25.73
2022-12-11T13:10:43.185Z,26.60
2022-12-11T13:13:38.610Z,25.93
2022-12-11T13:16:34.657Z,25.57
2022-12-11T13:19:27.604Z,26.97
2022-12-11T13:22:14.611Z,27.13
2022-12-11T13:25:20.141Z,26.53
2022-12-11T13:28:21.970Z,26.03
2022-12-11T13:31:15.025Z,27.30
2022-12-11T13:34:23.556Z,26.27
2022-12-11T13:37:36.230Z,28.53
2022-12-11T13:40:28.119Z,27.00
2022-12-11T13:43:24.694Z,27.47
2022-12-11T13:46:22.396Z,25.53
2022-12-11T13:49:22.337Z,25.00
2022-12-11T13:52:22.300Z,26.77
2022-12-11T13:55:35.629Z,25.80
2022-12-11T13:58:24.186Z,26.80
2022-12-11T14:01:22.956Z,28.53
2022-12-11T14:04:16.877Z,25.53
2022-12-11T14:07:08.379Z,26.27
2022-12-11T14:10:05.856Z,27.23
2022-12-11T14:13:13.300Z,26.53
2022-12-11T14:16:01.687Z,26.90
2022-12-11T14:18:52.076Z,27.37
2022-12-11T14:21:39.901Z,25.77
2022-12-11T14:24:30.630Z,26.30
2022-12-11T14:27:19.923Z,24.07
2022-12-11T14:30:12.570Z,25.80
2022-12-11T14:33:05.444Z,26.80
2022-12-11T14:35:54.452Z,25.83
2022-12-11T14:38:49.662Z,27.97
2022-12-11T14:41:55.186Z,27.00
2022-12-11T14:44:57.733Z,26.63
2022-12-11T14:47:47.578Z,26.77
2022-12-11T14:50:46.264Z,26.70
2022-12-11T14:53:38.708Z,29.07
2022-12-11T14:56:29.554Z,28.13
2022-12-11T14:59:28.373Z,28.20
2022-12-11T15:02:26.283Z,28.83
2022-12-11T15:05:16.220Z,27.37
2022-12-11T15:08:27.602Z,28.70
2022-12-11T15:11:18.339Z,28.70
2022-12-11T15:14:06.031Z,28.03
2022-12-11T15:16:58.888Z,28.67
2022-12-11T15:19:51.801Z,27.10
2022-12-11T15:22:43.727Z,30.13
2022-12-11T15:25:31.210Z,27.70
2022-12-11T15:28:32.823Z,28.77
2022-12-11T15:31:37.245Z,27.73
2022-12-11T15:34:25.007Z,28.17
2022-12-11T15:37:21.421Z,27.07
2022-12-11T15:40:12.885Z,26.07
2022-12-11T15:43:05.948Z,27.80
2022-12-11T15:45:53.456Z,26.40
2022-12-11T15:48:40.969Z,28.60
2022-12-11T15:51:29.407Z,26.43
2022-12-11T15:54:17.813Z,26.23
2022-12-11T15:57:09.960Z,25.00
2022-12-11T15:59:58.959Z,26.77
2022-12-11T16:02:47.493Z,25.67
2022-12-11T16:05:37.750Z,27.00
2022-12-11T16:08:31.258Z,27.73
2022-12-11T16:11:20.353Z,26.90
2022-12-11T16:14:09.392Z,28.23
2022-12-11T16:16:56.739Z,25.30
2022-12-11T16:19:46.280Z,26.80
2022-12-11T16:22:36.727Z,26.30
2022-12-11T16:25:26.125Z,29.10
2022-12-11T16:28:16.274Z,26.90
2022-12-11T16:31:04.001Z,27.70
2022-12-11T16:33:51.486Z,26.17
2022-12-11T16:36:38.884Z,28.50
2022-12-11T16:39:26.508Z,27.73
2022-12-11T16:42:13.814Z,27.33
2022-12-11T16:45:16.362Z,26.40
2022-12-11T16:48:07.527Z,24.07
2022-12-11T16:51:00.620Z,23.17
2022-12-11T16:53:48.254Z,22.67
2022-12-11T16:56:35.512Z,23.10
2022-12-11T16:59:24.472Z,21.57
2022-12-11T17:02:12.830Z,23.40
2022-12-11T17:05:00.337Z,23.17
2022-12-11T17:07:54.623Z,23.23
2022-12-11T17:10:47.455Z,22.40
2022-12-11T17:13:36.227Z,21.63
2022-12-11T17:16:26.514Z,24.00
2022-12-11T17:19:14.679Z,22.43
2022-12-11T17:22:05.080Z,20.27
2022-12-11T17:24:53.396Z,21.37
2022-12-11T17:27:40.721Z,22.30
2022-12-11T17:30:28.301Z,23.30
2022-12-11T17:33:16.497Z,22.27
2022-12-11T17:36:05.056Z,22.20
2022-12-11T17:38:52.399Z,23.00
2022-12-11T17:41:44.843Z,21.93
2022-12-11T17:44:37.334Z,22.73
2022-12-11T17:47:24.789Z,22.73
2022-12-11T17:50:12.228Z,23.60
2022-12-11T17:52:59.829Z,23.13
2022-12-11T17:55:50.502Z,23.53
2022-12-11T17:58:40.546Z,23.37
2022-12-11T18:01:30.933Z,23.80
2022-12-11T18:04:18.641Z,22.50
2022-12-11T18:07:12.209Z,21.50
2022-12-11T18:09:59.848Z,22.83
2022-12-11T18:12:50.107Z,26.33
2022-12-11T18:15:38.598Z,23.50
2022-12-11T18:18:26.184Z,23.37
2022-12-11T18:21:20.227Z,21.83
2022-12-11T18:24:08.853Z,22.63
2022-12-11T18:26:56.589Z,22.77
2022-12-11T18:29:47.009Z,22.13
2022-12-11T18:32:37.245Z,22.47
2022-12-11T18:35:25.916Z,23.13
2022-12-11T18:38:13.320Z,23.97
2022-12-11T18:41:09.025Z,23.63
2022-12-11T18:43:57.321Z,22.07
2022-12-11T18:46:44.745Z,22.53
2022-12-11T18:49:32.527Z,24.33
2022-12-11T18:52:20.211Z,23.60
2022-12-11T18:55:08.041Z,23.87
2022-12-11T18:57:56.663Z,22.57
2022-12-11T19:00:45.118Z,22.50
2022-12-11T19:03:33.283Z,23.67
2022-12-11T19:06:24.783Z,24.20
2022-12-11T19:09:13.292Z,24.23
2022-12-11T19:12:01.181Z,26.53
2022-12-11T19:14:49.247Z,25.60
2022-12-11T19:17:39.185Z,24.93
2022-12-11T19:23:35.603Z,23.70
2022-12-11T19:26:25.578Z,24.50
2022-12-11T19:29:28.567Z,24.30
2022-12-11T19:32:18.374Z,27.50
2022-12-11T19:35:09.149Z,25.53
2022-12-11T19:37:57.057Z,25.60
2022-12-11T19:40:46.354Z,26.07
2022-12-11T19:43:38.750Z,26.80
2022-12-11T19:46:27.002Z,27.50
2022-12-11T19:49:14.510Z,25.10
2022-12-11T19:52:02.048Z,26.70
2022-12-11T19:54:49.340Z,26.83
2022-12-11T19:57:37.218Z,27.10
2022-12-11T20:00:25.226Z,25.70
2022-12-11T20:03:13.406Z,26.80
2022-12-11T20:06:08.761Z,26.50
2022-12-11T20:08:56.736Z,26.90
2022-12-11T20:11:48.173Z,26.23
2022-12-11T20:14:35.456Z,26.20
2022-12-11T20:17:24.884Z,27.70
2022-12-11T20:20:19.521Z,28.73
2022-12-11T20:23:09.857Z,27.67
2022-12-11T20:26:03.258Z,28.60
2022-12-11T20:28:55.166Z,27.60
2022-12-11T20:31:42.541Z,27.50
2022-12-11T20:34:32.916Z,28.30
2022-12-11T20:37:24.796Z,27.23
2022-12-11T20:40:16.200Z,28.90
2022-12-11T20:43:03.806Z,28.17
2022-12-11T20:45:54.832Z,28.93
2022-12-11T20:48:44.110Z,28.83
2022-12-11T20:51:34.142Z,27.63
2022-12-11T20:54:21.893Z,29.03
2022-12-11T20:57:14.059Z,28.23
2022-12-11T21:00:01.322Z,29.07
2022-12-11T21:02:52.439Z,27.40
2022-12-11T21:05:44.741Z,30.57
2022-12-11T21:08:31.743Z,29.37
2022-12-11T21:11:18.984Z,30.10
2022-12-11T21:14:06.586Z,29.17
2022-12-11T21:16:54.091Z,30.63
2022-12-11T21:19:41.152Z,30.73
2022-12-11T21:22:28.660Z,30.00
2022-12-11T21:25:15.712Z,29.57
2022-12-11T21:28:02.764Z,29.70
2022-12-11T21:30:49.988Z,29.47
2022-12-11T21:33:37.409Z,30.80
2022-12-11T21:36:24.954Z,31.30
2022-12-11T21:39:17.885Z,29.43
2022-12-11T21:42:06.465Z,28.60
2022-12-11T21:45:52.195Z,29.73
2022-12-11T21:48:01.828Z,29.23
2022-12-11T21:50:53.518Z,32.07
2022-12-11T21:53:42.593Z,30.67
2022-12-11T21:56:31.882Z,29.27
2022-12-11T21:59:19.600Z,30.10
2022-12-11T22:02:08.649Z,29.30
2022-12-11T22:04:56.225Z,31.00
2022-12-11T22:07:44.274Z,31.33
2022-12-11T22:10:31.496Z,32.13
2022-12-11T22:13:20.473Z,31.67
2022-12-11T22:16:08.686Z,30.00
2022-12-11T22:18:56.503Z,32.17
2022-12-11T22:21:45.798Z,32.10
2022-12-11T22:24:33.667Z,31.63
2022-12-11T22:27:23.834Z,32.17
2022-12-11T22:30:12.664Z,32.33
2022-12-11T22:33:00.282Z,29.93
2022-12-11T22:35:48.046Z,33.10
2022-12-11T22:38:36.038Z,31.17
2022-12-11T22:41:29.893Z,32.53
2022-12-11T22:44:20.439Z,32.97
2022-12-11T22:47:07.936Z,31.60
2022-12-11T22:49:56.034Z,29.20
2022-12-11T22:52:44.935Z,30.30
2022-12-11T22:55:32.564Z,31.27
2022-12-11T22:58:21.877Z,30.23
2022-12-11T23:01:16.845Z,30.80
2022-12-11T23:04:03.913Z,29.97
2022-12-11T23:06:50.960Z,30.17
2022-12-11T23:09:37.983Z,30.00
2022-12-11T23:12:24.991Z,29.27
2022-12-11T23:15:12.326Z,31.33
2022-12-11T23:17:59.695Z,29.17
2022-12-11T23:20:46.776Z,31.17
2022-12-11T23:23:33.898Z,31.97
2022-12-11T23:26:22.853Z,31.77
2022-12-11T23:29:10.325Z,30.90
2022-12-11T23:31:57.293Z,29.93
2022-12-11T23:34:44.251Z,29.57
2022-12-11T23:37:31.906Z,30.90
2022-12-11T23:40:18.963Z,28.57
2022-12-11T23:43:05.977Z,31.37
2022-12-11T23:45:53.011Z,30.13
2022-12-11T23:48:40.360Z,31.97
2022-12-11T23:51:28.245Z,32.93
2022-12-11T23:54:15.224Z,29.17
2022-12-11T23:57:02.286Z,31.37
2022-12-11T23:59:49.262Z,29.87
